createdAt,value
2022-11-28T00:00:48.740Z,7.70
2022-11-28T00:01:49.109Z,7.90
2022-11-28T00:02:49.458Z,8.50
2022-11-28T00:03:49.620Z,8.50
2022-11-28T00:04:49.923Z,8.90
2022-11-28T00:05:50.254Z,8.30
2022-11-28T00:06:50.530Z,8.60
2022-11-28T00:07:50.873Z,8.60
2022-11-28T00:08:51.007Z,8.40
2022-11-28T00:09:51.343Z,8.60
2022-11-28T00:10:51.612Z,8.40
2022-11-28T00:11:51.924Z,9.50
2022-11-28T00:12:52.264Z,8.90
2022-11-28T00:13:52.527Z,9.50
2022-11-28T00:14:52.863Z,9.20
2022-11-28T00:15:53.176Z,9.10
2022-11-28T00:16:53.409Z,9.20
2022-11-28T00:17:53.737Z,9.60
2022-11-28T00:18:54.005Z,9.20
2022-11-28T00:19:54.333Z,9.00
2022-11-28T00:20:54.663Z,9.90
2022-11-28T00:21:54.942Z,9.20
2022-11-28T00:22:55.275Z,9.80
2022-11-28T00:23:55.522Z,10.10
2022-11-28T00:24:55.875Z,9.80
2022-11-28T00:25:56.154Z,9.80
2022-11-28T00:26:56.488Z,9.70
2022-11-28T00:27:56.785Z,9.90
2022-11-28T00:28:57.038Z,9.60
2022-11-28T00:29:57.338Z,9.70
2022-11-28T00:30:57.667Z,9.40
2022-11-28T00:31:58.003Z,10.30
2022-11-28T00:32:58.322Z,10.60
2022-11-28T00:33:58.625Z,9.90
2022-11-28T00:34:58.888Z,10.00
2022-11-28T00:35:59.245Z,10.20
2022-11-28T00:36:59.544Z,9.20
2022-11-28T00:37:59.892Z,10.00
2022-11-28T00:39:00.169Z,9.90
2022-11-28T00:40:00.496Z,9.20
2022-11-28T00:41:00.760Z,10.20
2022-11-28T00:42:01.111Z,9.70
2022-11-28T00:43:01.368Z,9.40
2022-11-28T00:44:01.688Z,9.20
2022-11-28T00:45:02.017Z,9.40
2022-11-28T00:46:02.322Z,9.70
2022-11-28T00:47:02.595Z,9.40
2022-11-28T00:48:02.867Z,9.10
2022-11-28T00:49:03.176Z,10.00
2022-11-28T00:50:03.488Z,9.50
2022-11-28T00:51:03.798Z,9.50
2022-11-28T00:52:04.135Z,9.00
2022-11-28T00:53:04.419Z,9.00
2022-11-28T00:54:04.678Z,9.10
2022-11-28T00:55:05.016Z,10.10
2022-11-28T00:56:05.315Z,9.70
2022-11-28T00:57:05.608Z,9.50
2022-11-28T00:58:05.944Z,9.40
2022-11-28T00:59:06.198Z,9.80
2022-11-28T01:00:06.535Z,9.60
2022-11-28T01:01:06.876Z,10.30
2022-11-28T01:02:07.097Z,8.80
2022-11-28T01:03:07.355Z,9.40
2022-11-28T01:04:07.634Z,9.10
2022-11-28T01:05:07.965Z,9.60
2022-11-28T01:06:08.263Z,9.70
2022-11-28T01:07:08.545Z,10.20
2022-11-28T01:08:08.912Z,9.80
2022-11-28T01:09:09.204Z,10.40
2022-11-28T01:10:09.503Z,10.70
2022-11-28T01:11:09.804Z,10.30
2022-11-28T01:12:10.094Z,10.90
2022-11-28T01:13:10.438Z,10.60
2022-11-28T01:14:10.726Z,9.80
2022-11-28T01:15:11.064Z,10.20
2022-11-28T01:16:11.474Z,9.90
2022-11-28T01:17:11.644Z,10.80
2022-11-28T01:18:11.969Z,10.40
2022-11-28T01:19:12.275Z,10.70
2022-11-28T01:20:12.576Z,10.80
2022-11-28T01:21:12.856Z,10.60
2022-11-28T01:22:13.194Z,10.80
2022-11-28T01:23:13.545Z,10.50
2022-11-28T01:24:13.826Z,10.70
2022-11-28T01:25:14.165Z,11.20
2022-11-28T01:26:14.495Z,11.30
2022-11-28T01:27:14.846Z,10.80
2022-11-28T01:28:15.167Z,10.70
2022-11-28T01:29:15.448Z,10.20
2022-11-28T01:30:15.806Z,10.60
2022-11-28T01:31:16.148Z,10.30
2022-11-28T01:32:16.408Z,10.50
2022-11-28T01:33:16.765Z,10.30
2022-11-28T01:34:17.047Z,10.40
2022-11-28T01:35:17.372Z,11.40
2022-11-28T01:36:17.676Z,10.60
2022-11-28T01:37:18.025Z,11.00
2022-11-28T01:38:18.309Z,11.10
2022-11-28T01:39:18.630Z,10.40
2022-11-28T01:40:18.995Z,10.80
2022-11-28T01:41:19.260Z,10.60
2022-11-28T01:42:19.589Z,11.00
2022-11-28T01:43:19.930Z,10.70
2022-11-28T01:44:20.237Z,11.30
2022-11-28T01:45:20.536Z,10.30
2022-11-28T01:46:20.932Z,10.50
2022-11-28T01:47:21.206Z,10.20
2022-11-28T01:48:21.551Z,10.50
2022-11-28T01:49:21.850Z,10.10
2022-11-28T01:50:22.149Z,10.40
2022-11-28T01:51:22.470Z,10.30
2022-11-28T01:52:22.779Z,10.20
2022-11-28T01:53:23.129Z,10.70
2022-11-28T01:54:23.435Z,10.60
2022-11-28T01:55:23.735Z,10.70
2022-11-28T01:56:24.010Z,10.30
2022-11-28T01:57:24.345Z,10.30
2022-11-28T01:58:24.669Z,10.60
2022-11-28T01:59:25.002Z,10.70
2022-11-28T02:00:25.336Z,10.40
2022-11-28T02:01:25.696Z,10.50
2022-11-28T02:02:26.022Z,10.00
2022-11-28T02:03:26.346Z,10.50
2022-11-28T02:04:26.636Z,10.20
2022-11-28T02:05:26.986Z,11.00
2022-11-28T02:06:27.249Z,10.50
2022-11-28T02:07:27.649Z,10.20
2022-11-28T02:08:27.906Z,10.40
2022-11-28T02:09:28.204Z,11.50
2022-11-28T02:10:28.527Z,9.80
2022-11-28T02:11:28.885Z,10.30
2022-11-28T02:12:29.156Z,10.30
2022-11-28T02:13:29.469Z,10.40
2022-11-28T02:14:29.729Z,10.50
2022-11-28T02:15:30.076Z,9.40
2022-11-28T02:16:30.580Z,10.30
2022-11-28T02:17:30.619Z,10.80
2022-11-28T02:18:30.951Z,9.70
2022-11-28T02:19:31.260Z,10.70
2022-11-28T02:20:31.595Z,9.70
2022-11-28T02:21:31.927Z,10.30
2022-11-28T02:22:32.200Z,9.20
2022-11-28T02:23:32.518Z,10.10
2022-11-28T02:24:32.860Z,9.60
2022-11-28T02:25:33.179Z,9.10
2022-11-28T02:26:33.516Z,9.80
2022-11-28T02:27:33.796Z,9.80
2022-11-28T02:28:34.118Z,9.80
2022-11-28T02:29:34.389Z,9.10
2022-11-28T02:30:34.723Z,9.30
2022-11-28T02:31:35.041Z,9.30
2022-11-28T02:32:35.250Z,10.30
2022-11-28T02:33:35.580Z,9.90
2022-11-28T02:34:35.881Z,9.80
2022-11-28T02:35:36.190Z,10.10
2022-11-28T02:36:36.510Z,9.70
2022-11-28T02:37:36.837Z,10.60
2022-11-28T02:38:37.162Z,10.20
2022-11-28T02:39:37.496Z,10.20
2022-11-28T02:40:37.839Z,10.20
2022-11-28T02:41:38.175Z,9.90
2022-11-28T02:42:38.495Z,9.70
2022-11-28T02:43:38.836Z,9.70
2022-11-28T02:44:39.146Z,10.10
2022-11-28T02:45:39.449Z,10.30
2022-11-28T02:46:39.865Z,11.10
2022-11-28T02:47:40.127Z,10.60
2022-11-28T02:48:40.487Z,10.20
2022-11-28T02:49:40.758Z,10.30
2022-11-28T02:50:41.070Z,9.60
2022-11-28T02:51:41.369Z,9.20
2022-11-28T02:52:41.671Z,9.60
2022-11-28T02:53:42.016Z,9.70
2022-11-28T02:54:42.504Z,9.50
2022-11-28T02:55:42.580Z,9.20
2022-11-28T02:56:42.918Z,10.70
2022-11-28T02:57:43.209Z,10.00
2022-11-28T02:58:43.546Z,9.20
2022-11-28T02:59:43.810Z,9.60
2022-11-28T03:00:44.167Z,9.70
2022-11-28T03:01:44.517Z,9.90
2022-11-28T03:02:44.740Z,9.40
2022-11-28T03:03:45.060Z,9.80
2022-11-28T03:04:45.425Z,9.60
2022-11-28T03:05:45.727Z,9.60
2022-11-28T03:06:45.999Z,10.30
2022-11-28T03:07:46.352Z,9.50
2022-11-28T03:08:46.690Z,9.90
2022-11-28T03:09:46.965Z,10.10
2022-11-28T03:10:47.270Z,9.50
2022-11-28T03:11:47.583Z,9.50
2022-11-28T03:12:47.917Z,9.60
2022-11-28T03:13:48.180Z,10.10
2022-11-28T03:14:48.524Z,10.00
2022-11-28T03:15:48.857Z,11.40
2022-11-28T03:16:49.143Z,10.00
2022-11-28T03:17:49.450Z,10.30
2022-11-28T03:18:49.816Z,10.20
2022-11-28T03:19:50.080Z,10.00
2022-11-28T03:20:50.418Z,9.90
2022-11-28T03:21:50.747Z,9.80
2022-11-28T03:22:51.010Z,9.60
2022-11-28T03:23:51.317Z,9.70
2022-11-28T03:24:51.612Z,9.20
2022-11-28T03:25:51.929Z,10.10
2022-11-28T03:26:52.275Z,10.00
2022-11-28T03:27:52.568Z,9.40
2022-11-28T03:28:52.891Z,9.10
2022-11-28T03:29:53.176Z,10.20
2022-11-28T03:30:53.491Z,9.90
2022-11-28T03:31:53.838Z,9.20
2022-11-28T03:32:54.107Z,9.80
2022-11-28T03:33:54.431Z,9.80
2022-11-28T03:34:54.701Z,10.00
2022-11-28T03:35:55.030Z,9.60
2022-11-28T03:36:55.367Z,10.00
2022-11-28T03:37:55.658Z,10.00
2022-11-28T03:38:56.016Z,9.10
2022-11-28T03:39:56.308Z,9.20
2022-11-28T03:40:56.597Z,9.00
2022-11-28T03:41:56.851Z,9.30
2022-11-28T03:42:57.180Z,9.20
2022-11-28T03:43:57.500Z,9.10
2022-11-28T03:44:57.770Z,9.00
2022-11-28T03:45:58.088Z,9.00
2022-11-28T03:46:58.427Z,9.10
2022-11-28T03:47:58.719Z,8.80
2022-11-28T03:48:59.041Z,9.00
2022-11-28T03:49:59.382Z,9.30
2022-11-28T03:50:59.669Z,9.60
2022-11-28T03:51:59.922Z,9.90
2022-11-28T03:53:00.259Z,9.20
2022-11-28T03:54:00.567Z,9.60
2022-11-28T03:55:00.830Z,9.00
2022-11-28T03:56:01.245Z,9.00
2022-11-28T03:57:01.458Z,9.00
2022-11-28T03:58:01.758Z,9.40
2022-11-28T03:59:02.030Z,8.70
2022-11-28T04:00:02.331Z,9.40
2022-11-28T04:01:02.671Z,9.20
2022-11-28T04:02:02.901Z,8.80
2022-11-28T04:03:03.288Z,8.90
2022-11-28T04:04:03.541Z,9.50
2022-11-28T04:05:03.886Z,9.30
2022-11-28T04:06:04.150Z,9.90
2022-11-28T04:07:04.451Z,9.00
2022-11-28T04:08:04.819Z,9.30
2022-11-28T04:09:06.460Z,9.60
2022-11-28T04:10:05.465Z,8.80
2022-11-28T04:11:05.738Z,9.50
2022-11-28T04:12:06.067Z,9.30
2022-11-28T04:13:06.357Z,9.50
2022-11-28T04:14:06.641Z,9.30
2022-11-28T04:15:06.901Z,9.10
2022-11-28T04:16:07.260Z,9.40
2022-11-28T04:17:07.512Z,9.30
2022-11-28T04:18:07.801Z,9.60
2022-11-28T04:19:08.156Z,9.80
2022-11-28T04:20:08.449Z,9.80
2022-11-28T04:21:08.719Z,10.30
2022-11-28T04:22:09.032Z,10.20
2022-11-28T04:23:09.361Z,10.30
2022-11-28T04:24:09.700Z,10.90
2022-11-28T04:25:09.972Z,10.10
2022-11-28T04:26:10.316Z,10.70
2022-11-28T04:27:10.651Z,9.80
2022-11-28T04:28:10.978Z,9.50
2022-11-28T04:29:11.297Z,9.40
2022-11-28T04:30:11.561Z,9.40
2022-11-28T04:31:19.404Z,9.10
2022-11-28T04:32:12.166Z,9.60
2022-11-28T04:33:12.430Z,9.80
2022-11-28T04:34:12.778Z,9.90
2022-11-28T04:35:13.039Z,9.80
2022-11-28T04:36:13.348Z,8.90
2022-11-28T04:37:13.659Z,9.80
2022-11-28T04:38:13.998Z,9.30
2022-11-28T04:39:14.269Z,9.70
2022-11-28T04:40:14.596Z,9.20
2022-11-28T04:41:14.859Z,8.80
2022-11-28T04:42:15.160Z,8.90
2022-11-28T04:43:15.486Z,8.80
2022-11-28T04:44:15.800Z,8.70
2022-11-28T04:45:16.110Z,9.10
2022-11-28T04:46:16.443Z,9.50
2022-11-28T04:47:16.717Z,10.00
2022-11-28T04:48:17.023Z,10.00
2022-11-28T04:49:17.360Z,9.20
2022-11-28T04:50:17.619Z,9.50
2022-11-28T04:51:17.929Z,9.60
2022-11-28T04:52:18.254Z,8.90
2022-11-28T04:53:18.558Z,9.40
2022-11-28T04:54:18.829Z,10.20
2022-11-28T04:55:19.208Z,10.10
2022-11-28T04:56:19.481Z,9.00
2022-11-28T04:57:19.808Z,9.20
2022-11-28T04:58:20.111Z,9.70
2022-11-28T04:59:20.458Z,9.70
2022-11-28T05:00:20.720Z,9.70
2022-11-28T05:01:21.086Z,9.60
2022-11-28T05:02:21.389Z,9.20
2022-11-28T05:03:21.667Z,9.70
2022-11-28T05:04:21.959Z,9.20
2022-11-28T05:05:22.270Z,9.40
2022-11-28T05:06:22.547Z,9.60
2022-11-28T05:07:22.951Z,9.00
2022-11-28T05:08:23.207Z,9.10
2022-11-28T05:09:23.533Z,10.00
2022-11-28T05:10:23.821Z,9.60
2022-11-28T05:11:24.101Z,9.50
2022-11-28T05:12:24.440Z,9.50
2022-11-28T05:13:24.690Z,9.60
2022-11-28T05:14:25.045Z,10.00
2022-11-28T05:15:25.349Z,9.10
2022-11-28T05:16:25.664Z,8.90
2022-11-28T05:17:25.980Z,9.30
2022-11-28T05:18:26.240Z,9.00
2022-11-28T05:19:26.561Z,9.40
2022-11-28T05:20:26.888Z,8.70
2022-11-28T05:21:27.207Z,9.40
2022-11-28T05:22:27.527Z,9.60
2022-11-28T05:23:27.859Z,9.20
2022-11-28T05:24:32.191Z,9.30
2022-11-28T05:25:28.380Z,9.30
2022-11-28T05:26:28.715Z,9.30
2022-11-28T05:27:28.962Z,9.00
2022-11-28T05:28:29.298Z,9.50
2022-11-28T05:29:29.615Z,9.20
2022-11-28T05:30:29.918Z,8.90
2022-11-28T05:31:30.267Z,9.20
2022-11-28T05:32:30.420Z,9.90
2022-11-28T05:33:30.770Z,9.70
2022-11-28T05:34:31.043Z,9.90
2022-11-28T05:35:31.373Z,9.40
2022-11-28T05:36:31.672Z,9.20
2022-11-28T05:37:31.958Z,9.30
2022-11-28T05:38:32.282Z,10.10
2022-11-28T05:39:32.627Z,10.30
2022-11-28T05:40:32.940Z,9.70
2022-11-28T05:41:33.237Z,10.60
2022-11-28T05:42:33.500Z,10.00
2022-11-28T05:43:33.863Z,10.00
2022-11-28T05:44:34.565Z,9.70
2022-11-28T05:45:34.578Z,10.00
2022-11-28T05:46:34.772Z,9.80
2022-11-28T05:47:35.058Z,10.00
2022-11-28T05:48:35.331Z,10.00
2022-11-28T05:49:35.728Z,9.80
2022-11-28T05:50:39.857Z,9.20
2022-11-28T05:51:36.277Z,9.90
2022-11-28T05:52:36.561Z,9.70
2022-11-28T05:53:36.889Z,9.70
2022-11-28T05:54:37.198Z,9.70
2022-11-28T05:55:37.441Z,10.60
2022-11-28T05:56:42.263Z,9.40
2022-11-28T05:57:38.024Z,9.40
2022-11-28T05:58:38.347Z,9.90
2022-11-28T05:59:38.674Z,9.40
2022-11-28T06:00:38.950Z,9.60
2022-11-28T06:01:39.373Z,9.00
2022-11-28T06:02:39.547Z,10.10
2022-11-28T06:03:39.891Z,10.10
2022-11-28T06:04:40.352Z,10.50
2022-11-28T06:05:43.259Z,9.40
2022-11-28T06:06:40.762Z,9.50
2022-11-28T06:07:41.068Z,8.90
2022-11-28T06:08:41.327Z,10.20
2022-11-28T06:09:41.911Z,10.00
2022-11-28T06:10:41.941Z,10.10
2022-11-28T06:11:42.276Z,9.50
2022-11-28T06:12:42.568Z,9.20
2022-11-28T06:13:42.846Z,9.60
2022-11-28T06:14:43.119Z,9.10
2022-11-28T06:15:43.449Z,9.90
2022-11-28T06:16:43.820Z,9.10
2022-11-28T06:17:44.097Z,9.00
2022-11-28T06:18:44.402Z,8.90
2022-11-28T06:19:45.167Z,9.20
2022-11-28T06:20:45.063Z,9.40
2022-11-28T06:21:45.399Z,10.00
2022-11-28T06:22:45.689Z,9.30
2022-11-28T06:23:46.038Z,10.00
2022-11-28T06:24:46.368Z,9.50
2022-11-28T06:25:46.641Z,10.50
2022-11-28T06:26:46.981Z,10.60
2022-11-28T06:27:47.317Z,10.50
2022-11-28T06:28:47.655Z,9.90
2022-11-28T06:29:48.012Z,9.70
2022-11-28T06:30:48.279Z,10.10
2022-11-28T06:31:48.718Z,10.20
2022-11-28T06:32:48.861Z,9.80
2022-11-28T06:33:49.154Z,10.60
2022-11-28T06:34:49.528Z,10.40
2022-11-28T06:35:49.811Z,10.50
2022-11-28T06:36:50.122Z,10.90
2022-11-28T06:37:50.466Z,10.10
2022-11-28T06:38:50.816Z,10.00
2022-11-28T06:39:51.110Z,10.00
2022-11-28T06:40:51.395Z,10.80
2022-11-28T06:41:51.720Z,10.70
2022-11-28T06:42:52.069Z,11.60
2022-11-28T06:43:52.412Z,11.80
2022-11-28T06:44:52.701Z,11.10
2022-11-28T06:45:53.028Z,10.80
2022-11-28T06:46:53.328Z,11.20
2022-11-28T06:47:53.679Z,11.10
2022-11-28T06:48:53.982Z,11.60
2022-11-28T06:49:54.346Z,11.20
2022-11-28T06:50:54.664Z,11.10
2022-11-28T06:51:54.932Z,10.80
2022-11-28T06:52:55.270Z,11.40
2022-11-28T06:53:55.609Z,11.60
2022-11-28T06:54:56.005Z,11.80
2022-11-28T06:55:56.171Z,12.50
2022-11-28T06:56:56.503Z,12.00
2022-11-28T06:57:56.861Z,12.40
2022-11-28T06:58:57.180Z,12.20
2022-11-28T06:59:57.509Z,13.60
2022-11-28T07:00:57.868Z,12.70
2022-11-28T07:01:59.298Z,12.60
2022-11-28T07:02:58.336Z,13.00
2022-11-28T07:03:58.532Z,13.60
2022-11-28T07:04:58.901Z,12.90
2022-11-28T07:05:59.219Z,13.70
2022-11-28T07:06:59.540Z,12.40
2022-11-28T07:07:59.890Z,12.60
2022-11-28T07:09:00.130Z,13.30
2022-11-28T07:10:00.480Z,13.20
2022-11-28T07:11:00.791Z,12.00
2022-11-28T07:12:01.020Z,12.10
2022-11-28T07:13:05.161Z,12.30
2022-11-28T07:16:22.501Z,12.20
2022-11-28T07:17:22.772Z,12.20
2022-11-28T07:18:23.129Z,12.10
2022-11-28T07:19:23.447Z,11.00
2022-11-28T07:20:23.768Z,12.00
2022-11-28T07:21:24.089Z,11.40
2022-11-28T07:22:24.381Z,11.80
2022-11-28T07:23:24.712Z,13.50
2022-11-28T07:24:25.109Z,10.80
2022-11-28T07:25:25.309Z,11.40
2022-11-28T07:26:25.578Z,11.60
2022-11-28T07:27:25.927Z,12.40
2022-11-28T07:28:26.268Z,12.20
2022-11-28T07:29:26.564Z,11.90
2022-11-28T07:30:26.943Z,11.70
2022-11-28T07:31:27.369Z,11.10
2022-11-28T07:32:27.549Z,11.00
2022-11-28T07:33:27.854Z,10.90
2022-11-28T07:34:28.131Z,11.00
2022-11-28T07:35:28.443Z,12.30
2022-11-28T07:36:28.738Z,11.10
2022-11-28T07:37:28.924Z,11.60
2022-11-28T07:38:29.173Z,11.60
2022-11-28T07:39:29.419Z,11.20
2022-11-28T07:40:29.659Z,12.30
2022-11-28T07:41:29.920Z,11.60
2022-11-28T07:42:30.256Z,10.60
2022-11-28T07:43:30.587Z,11.40
2022-11-28T07:44:30.894Z,11.00
2022-11-28T07:45:47.403Z,11.80
2022-11-28T07:46:32.567Z,11.50
2022-11-28T07:47:31.718Z,11.50
2022-11-28T07:48:32.054Z,11.50
2022-11-28T07:49:32.375Z,11.50
2022-11-28T07:50:32.682Z,10.60
2022-11-28T07:51:32.980Z,11.90
2022-11-28T07:52:33.159Z,11.40
2022-11-28T07:53:33.555Z,12.10
2022-11-28T07:54:33.770Z,12.10
2022-11-28T07:55:34.072Z,11.90
2022-11-28T07:57:10.301Z,11.40
2022-11-28T07:57:35.599Z,10.80
2022-11-28T07:58:34.863Z,11.00
2022-11-28T07:59:35.110Z,11.00
2022-11-28T08:00:35.448Z,10.70
2022-11-28T08:01:35.829Z,10.80
2022-11-28T08:02:36.102Z,10.80
2022-11-28T08:03:36.362Z,10.40
2022-11-28T08:04:36.639Z,10.60
2022-11-28T08:05:36.802Z,10.50
2022-11-28T08:06:37.179Z,10.20
2022-11-28T08:07:37.460Z,10.40
2022-11-28T08:08:37.753Z,10.50
2022-11-28T08:09:38.018Z,11.30
2022-11-28T08:10:38.358Z,11.20
2022-11-28T08:11:38.587Z,11.60
2022-11-28T08:12:38.820Z,11.50
2022-11-28T08:13:39.132Z,10.60
2022-11-28T08:14:39.412Z,10.70
2022-11-28T08:15:39.648Z,10.60
2022-11-28T08:16:40.150Z,11.90
2022-11-28T08:17:40.304Z,11.10
2022-11-28T08:18:40.521Z,10.70
2022-11-28T08:19:40.863Z,11.60
2022-11-28T08:20:41.129Z,11.60
2022-11-28T08:21:41.469Z,10.80
2022-11-28T08:22:41.813Z,11.20
2022-11-28T08:23:42.123Z,10.60
2022-11-28T08:24:42.681Z,12.20
2022-11-28T08:25:42.595Z,11.60
2022-11-28T08:26:42.861Z,12.30
2022-11-28T08:27:43.210Z,11.70
2022-11-28T08:28:43.400Z,10.70
2022-11-28T08:29:45.465Z,11.30
2022-11-28T08:30:44.083Z,11.70
2022-11-28T08:31:44.299Z,11.00
2022-11-28T08:32:44.524Z,11.50
2022-11-28T08:33:44.780Z,11.30
2022-11-28T08:34:45.041Z,11.20
2022-11-28T08:35:45.260Z,11.40
2022-11-28T08:36:45.590Z,11.50
2022-11-28T08:37:45.916Z,11.00
2022-11-28T08:38:57.831Z,11.60
2022-11-28T08:39:47.495Z,11.10
2022-11-28T08:40:46.742Z,10.80
2022-11-28T08:41:47.003Z,10.90
2022-11-28T08:42:47.361Z,11.70
2022-11-28T08:43:47.563Z,11.00
2022-11-28T08:44:47.813Z,11.60
2022-11-28T08:45:48.191Z,13.20
2022-11-28T08:46:48.493Z,15.90
2022-11-28T08:47:48.847Z,14.40
2022-11-28T08:48:49.163Z,13.50
2022-11-28T08:49:49.486Z,12.80
2022-11-28T08:50:49.723Z,14.80
2022-11-28T08:51:49.983Z,14.10
2022-11-28T08:52:50.284Z,13.20
2022-11-28T08:53:54.926Z,11.80
2022-11-28T08:54:51.821Z,12.20
2022-11-28T08:55:51.081Z,12.40
2022-11-28T08:56:51.338Z,11.80
2022-11-28T08:57:51.633Z,11.60
2022-11-28T08:58:52.008Z,11.60
2022-11-28T08:59:52.249Z,10.40
2022-11-28T09:00:52.609Z,10.40
2022-11-28T09:01:52.912Z,10.60
2022-11-28T09:02:53.074Z,11.40
2022-11-28T09:03:53.385Z,11.30
2022-11-28T09:04:53.555Z,10.50
2022-11-28T09:05:53.912Z,12.20
2022-11-28T09:06:54.195Z,10.50
2022-11-28T09:07:54.442Z,10.60
2022-11-28T09:08:54.623Z,10.60
2022-11-28T09:09:54.847Z,10.00
2022-11-28T09:10:55.239Z,10.20
2022-11-28T09:11:55.573Z,10.80
2022-11-28T09:12:55.893Z,10.50
2022-11-28T09:13:56.133Z,10.70
2022-11-28T09:14:56.373Z,11.90
2022-11-28T09:15:56.603Z,11.00
2022-11-28T09:16:56.940Z,10.80
2022-11-28T09:17:57.131Z,11.70
2022-11-28T09:18:57.377Z,10.20
2022-11-28T09:19:57.692Z,11.30
2022-11-28T09:20:57.971Z,10.10
2022-11-28T09:21:58.234Z,11.30
2022-11-28T09:22:58.457Z,10.10
2022-11-28T09:23:58.634Z,10.30
2022-11-28T09:24:58.892Z,9.70
2022-11-28T09:25:59.200Z,10.70
2022-11-28T09:26:59.448Z,9.30
2022-11-28T09:27:59.770Z,10.40
2022-11-28T09:29:00.109Z,9.90
2022-11-28T09:30:00.433Z,10.90
2022-11-28T09:31:00.831Z,10.30
2022-11-28T09:32:01.075Z,10.60
2022-11-28T09:33:01.244Z,10.90
2022-11-28T09:34:01.511Z,10.80
2022-11-28T09:35:01.829Z,10.10
2022-11-28T09:36:02.097Z,10.60
2022-11-28T09:37:05.026Z,10.20
2022-11-28T09:38:02.732Z,9.70
2022-11-28T09:39:03.038Z,10.00
2022-11-28T09:40:13.074Z,9.80
2022-11-28T09:41:04.582Z,10.40
2022-11-28T09:42:03.864Z,10.30
2022-11-28T09:43:04.071Z,10.40
2022-11-28T09:44:04.331Z,10.40
2022-11-28T09:45:04.651Z,10.20
2022-11-28T09:46:04.923Z,10.10
2022-11-28T09:47:05.184Z,9.90
2022-11-28T09:48:05.398Z,9.90
2022-11-28T09:49:05.712Z,9.90
2022-11-28T09:50:06.031Z,10.30
2022-11-28T09:51:06.354Z,9.70
2022-11-28T09:52:06.699Z,10.80
2022-11-28T09:53:06.932Z,10.20
2022-11-28T09:54:07.210Z,9.60
2022-11-28T09:55:07.543Z,10.40
2022-11-28T09:56:07.738Z,10.30
2022-11-28T09:57:07.993Z,10.10
2022-11-28T09:58:08.317Z,11.00
2022-11-28T09:59:08.642Z,9.80
2022-11-28T10:00:09.032Z,10.10
2022-11-28T10:01:09.243Z,9.90
2022-11-28T10:02:09.558Z,11.20
2022-11-28T10:03:09.918Z,10.80
2022-11-28T10:04:10.297Z,9.90
2022-11-28T10:05:10.424Z,11.30
2022-11-28T10:06:10.641Z,10.70
2022-11-28T10:07:10.973Z,11.40
2022-11-28T10:08:11.353Z,10.30
2022-11-28T10:09:11.510Z,10.30
2022-11-28T10:10:11.754Z,10.80
2022-11-28T10:11:12.024Z,10.30
2022-11-28T10:12:12.228Z,10.60
2022-11-28T10:13:12.502Z,11.00
2022-11-28T10:15:39.696Z,11.50
2022-11-28T10:16:40.035Z,11.60
2022-11-28T10:17:40.239Z,11.00
2022-11-28T10:18:40.504Z,13.10
2022-11-28T10:19:56.214Z,12.00
2022-11-28T10:20:42.088Z,11.00
2022-11-28T10:21:41.397Z,10.30
2022-11-28T10:22:41.599Z,11.10
2022-11-28T10:23:41.855Z,10.10
2022-11-28T10:24:42.159Z,10.30
2022-11-28T10:25:42.501Z,10.50
2022-11-28T10:26:42.913Z,10.20
2022-11-28T10:27:43.097Z,10.50
2022-11-28T10:28:50.343Z,10.40
2022-11-28T10:29:43.828Z,10.40
2022-11-28T10:30:44.004Z,10.70
2022-11-28T10:31:44.209Z,10.20
2022-11-28T10:32:44.539Z,10.80
2022-11-28T10:33:44.791Z,10.50
2022-11-28T10:34:45.121Z,10.80
2022-11-28T10:35:45.459Z,11.00
2022-11-28T10:36:45.772Z,10.10
2022-11-28T10:37:46.003Z,10.20
2022-11-28T10:38:46.243Z,11.50
2022-11-28T10:39:46.500Z,10.10
2022-11-28T10:40:46.732Z,11.20
2022-11-28T10:41:47.010Z,11.10
2022-11-28T10:42:47.221Z,10.70
2022-11-28T10:43:47.471Z,10.70
2022-11-28T10:44:47.794Z,11.60
2022-11-28T10:45:48.164Z,11.60
2022-11-28T10:46:48.399Z,12.00
2022-11-28T10:47:48.611Z,11.30
2022-11-28T10:48:48.939Z,11.20
2022-11-28T10:49:49.261Z,11.00
2022-11-28T10:50:49.486Z,11.80
2022-11-28T10:51:49.744Z,11.90
2022-11-28T10:52:50.071Z,12.10
2022-11-28T10:53:50.341Z,11.70
2022-11-28T10:54:50.581Z,12.10
2022-11-28T10:55:50.782Z,13.20
2022-11-28T10:56:51.071Z,13.60
2022-11-28T10:57:51.300Z,13.20
2022-11-28T10:58:51.631Z,12.90
2022-11-28T10:59:51.945Z,12.80
2022-11-28T11:00:52.191Z,13.40
2022-11-28T11:01:52.501Z,14.10
2022-11-28T11:02:52.663Z,14.00
2022-11-28T11:03:52.941Z,13.20
2022-11-28T11:04:53.180Z,13.70
2022-11-28T11:05:53.395Z,14.40
2022-11-28T11:07:07.496Z,12.80
2022-11-28T11:07:55.012Z,14.30
2022-11-28T11:08:54.249Z,13.50
2022-11-28T11:09:54.521Z,15.40
2022-11-28T11:10:54.732Z,14.90
2022-11-28T11:11:55.004Z,15.50
2022-11-28T11:12:55.244Z,15.70
2022-11-28T11:13:55.460Z,15.80
2022-11-28T11:14:55.695Z,14.20
2022-11-28T11:15:56.027Z,15.20
2022-11-28T11:16:56.271Z,17.00
2022-11-28T11:17:56.465Z,15.30
2022-11-28T11:18:56.696Z,16.30
2022-11-28T11:19:56.949Z,16.30
2022-11-28T11:20:57.211Z,16.40
2022-11-28T11:21:57.470Z,16.60
2022-11-28T11:22:57.666Z,17.10
2022-11-28T11:23:57.915Z,16.90
2022-11-28T11:24:58.165Z,15.20
2022-11-28T11:25:58.436Z,14.10
2022-11-28T11:26:58.691Z,14.00
2022-11-28T11:27:58.885Z,13.00
2022-11-28T11:28:59.231Z,14.20
2022-11-28T11:29:59.470Z,13.60
2022-11-28T11:30:59.884Z,13.40
2022-11-28T11:32:00.039Z,14.40
2022-11-28T11:33:00.340Z,14.20
2022-11-28T11:34:00.686Z,14.30
2022-11-28T11:35:00.952Z,13.00
2022-11-28T11:36:01.282Z,15.10
2022-11-28T11:37:01.604Z,15.00
2022-11-28T11:38:01.941Z,14.40
2022-11-28T11:39:02.237Z,15.30
2022-11-28T11:40:02.465Z,14.20
2022-11-28T11:41:02.742Z,14.70
2022-11-28T11:42:03.112Z,14.20
2022-11-28T11:43:03.325Z,14.00
2022-11-28T11:44:03.652Z,15.30
2022-11-28T11:45:03.914Z,14.30
2022-11-28T11:46:04.308Z,14.70
2022-11-28T11:47:04.506Z,14.50
2022-11-28T11:48:04.844Z,13.30
2022-11-28T11:49:05.094Z,13.60
2022-11-28T11:50:05.364Z,13.90
2022-11-28T11:51:05.575Z,14.60
2022-11-28T11:52:05.815Z,14.40
2022-11-28T11:53:06.058Z,15.20
2022-11-28T11:54:06.329Z,14.20
2022-11-28T11:55:06.635Z,13.50
2022-11-28T11:56:06.911Z,13.10
2022-11-28T11:57:31.331Z,13.50
2022-11-28T11:58:08.418Z,15.00
2022-11-28T11:59:07.702Z,18.00
2022-11-28T12:00:08.055Z,18.80
2022-11-28T12:01:08.382Z,18.30
2022-11-28T12:02:08.789Z,16.80
2022-11-28T12:03:09.081Z,15.00
2022-11-28T12:04:30.645Z,15.30
2022-11-28T12:05:10.523Z,15.60
2022-11-28T12:06:14.624Z,15.40
2022-11-28T12:07:11.133Z,15.90
2022-11-28T12:08:10.402Z,16.60
2022-11-28T12:09:10.698Z,16.00
2022-11-28T12:10:11.060Z,15.90
2022-11-28T12:11:11.331Z,16.50
2022-11-28T12:12:11.693Z,16.10
2022-11-28T12:13:11.905Z,15.90
2022-11-28T12:14:12.242Z,15.50
2022-11-28T12:15:12.561Z,15.00
2022-11-28T12:16:12.831Z,15.50
2022-11-28T12:17:40.391Z,15.10
2022-11-28T12:18:14.409Z,15.20
2022-11-28T12:19:13.656Z,15.20
2022-11-28T12:20:13.901Z,15.40
2022-11-28T12:21:14.156Z,14.60
2022-11-28T12:22:14.409Z,15.00
2022-11-28T12:23:17.611Z,14.30
2022-11-28T12:24:14.993Z,14.30
2022-11-28T12:25:15.205Z,15.40
2022-11-28T12:26:15.464Z,17.40
2022-11-28T12:27:15.743Z,16.10
2022-11-28T12:28:15.992Z,17.90
2022-11-28T12:29:16.187Z,19.60
2022-11-28T12:30:16.454Z,21.60
2022-11-28T12:31:16.805Z,21.00
2022-11-28T12:32:17.053Z,20.20
2022-11-28T12:33:17.281Z,19.00
2022-11-28T12:34:17.468Z,16.10
2022-11-28T12:35:17.737Z,14.50
2022-11-28T12:36:17.967Z,15.60
2022-11-28T12:37:18.262Z,16.00
2022-11-28T12:38:18.481Z,15.00
2022-11-28T12:39:18.735Z,16.00
2022-11-28T12:40:18.984Z,16.10
2022-11-28T12:41:19.279Z,15.20
2022-11-28T12:42:19.554Z,15.30
2022-11-28T12:43:19.892Z,14.80
2022-11-28T12:44:20.245Z,14.80
2022-11-28T12:45:20.473Z,13.90
2022-11-28T12:46:20.862Z,13.80
2022-11-28T12:47:21.102Z,14.60
2022-11-28T12:48:21.288Z,15.30
2022-11-28T12:49:21.530Z,14.10
2022-11-28T12:50:21.806Z,13.60
2022-11-28T12:51:22.035Z,14.90
2022-11-28T12:52:22.271Z,14.10
2022-11-28T12:53:22.516Z,13.70
2022-11-28T12:54:22.718Z,14.20
2022-11-28T12:55:22.984Z,13.90
2022-11-28T12:56:23.315Z,13.90
2022-11-28T12:57:23.568Z,14.50
2022-11-28T12:58:23.946Z,13.80
2022-11-28T12:59:24.172Z,14.40
2022-11-28T13:00:24.448Z,14.60
2022-11-28T13:01:24.748Z,13.60
2022-11-28T13:02:25.108Z,13.20
2022-11-28T13:03:25.223Z,12.90
2022-11-28T13:04:25.418Z,13.80
2022-11-28T13:05:25.683Z,13.30
2022-11-28T13:06:25.933Z,13.40
2022-11-28T13:07:26.243Z,13.10
2022-11-28T13:08:26.423Z,13.00
2022-11-28T13:09:26.684Z,12.50